Aviation Digital Data Service (ADDS)

Output produced by METARs form (0642 UTC 24 March 2019)
found at http://www.aviationweather.gov/metar/data/
 
UNAA 240630Z 32001MPS CAVOK 11/M14 Q1015 R02/090065 NOSIG RMK QFE739
TAF UNAA 240457Z 2406/2506 25003G10MPS 9999 SCT025CB 
     TEMPO 2409/2414 5000 -SHRA 
     TEMPO 2414/2501 3200 -SHSN 
     FM250100 35003G10MPS 9999 SCT020CB 
     TEMPO 2501/2506 3100 -SHSN
       
TAF UOOO 240449Z 2406/2506 17007G12MPS 2100 -SHSN DRSN BKN010CB 
     TEMPO 2406/2506 20008G15MPS 1000 SHSN BR SCT004 BKN006CB
       
URWA 240630Z 29003MPS 4300 -SHRA BR BKN009 OVC023CB 06/04 Q1014 R27/290250 TEMPO 2000 SHRA BKN005 BKN020CB RMK QFE762/1016
TAF URWA 240500Z 2406/2415 10003G08MPS 9999 SCT011 BKN020CB 
     TEMPO 2406/2412 32005G11MPS 1200 SHRA BR BKN004 BKN020CB 
     BECMG 2412/2415 32006G12MPS
       
USCC 240630Z 10002MPS 6000 SCT030 03/M01 Q1020 R09/000060 NOSIG RMK QFE744
TAF USCC 240500Z 2406/2506 18003G08MPS 5000 FU SCT020 
     TEMPO 2406/2412 12003MPS 
     TEMPO 2415/2424 3100 BR FU SCT011
       
UNBB 240630Z 23004MPS CAVOK 06/M05 Q1018 R24/CLRD60 NOSIG RMK QFE741
TAF UNBB 240500Z 2406/2506 26003G08MPS 9999 SCT020 
     TEMPO 2406/2413 3100 -SHRA BR SCT003 BKN011CB 
     TEMPO 2413/2506 0300 FZFG SCT002 BKN011
       
UWKE 240630Z 21005MPS 8000 BKN006 00/M00 Q1019 R21/120060 NOSIG RMK OBST OBSC QFE747/0996
TAF UWKE 240445Z 2406/2506 22006G12MPS 3100 BR OVC011 
     TEMPO 2406/2409 0500 -SN FZFG OVC002 
     FM240900 20006G12MPS 9999 BKN015 
     TEMPO 2409/2418 18005G10MPS 3100 -SNRA OVC011 
     BECMG 2418/2419 14006G12MPS 
     TEMPO 2418/2506 1000 -SN BR OVC003
       
UUOB 240630Z 34003MPS 9999 SCT040 01/M02 Q1016 R29/010060 NOSIG
TAF UUOB 240500Z 2406/2415 31005MPS 9999 BKN030 
     TEMPO 2409/2412 28006G11MPS
       
URMO 240630Z 32002MPS 3200 -SHSN BR BKN003 OVC022CB 00/00 Q1016 R09/190160 NOSIG RMK MT OBSC QFE718/0958
TAF URMO 240500Z 2406/2415 28003G08MPS 5000 -SHSN BR BKN005 BKN020CB 
     TEMPO 2406/2409 2100 -SHSN BR BKN003 BKN015CB
       
TAF ULPB 240559Z 2407/2415 24005G12MPS 6000 SCT011 BKN020 
     TEMPO 2407/2415 3100 -SHSNRA BKN011 BKN015CB 
     BECMG 2412/2413 26005G11MPS
       
USPP 240630Z 00000MPS 1700 R21/1700 BR SCT003 M02/M03 Q1019 R21/120055 NOSIG RMK QBB090 QFE753
TAF USPP 240458Z 2406/2506 19003G08MPS 9999 BKN011 
     TEMPO 2406/2408 0400 FZFG BKN002 
     BECMG 2408/2410 SCT020
       
UIBB 240630Z 34003MPS 300V060 9999 BKN037 M01/M09 Q1015 R30/820250 NOSIG RMK QFE718/0958
TAF UIBB 240500Z 2406/2506 35005MPS 9999 BKN020CB 
     BECMG 2408/2410 08003MPS
       
UUBP 240630Z 21003MPS 9999 SCT033 01/M02 Q1013 R16/CLRD70 NOSIG RMK QFE742/0989
TAF UUBP 240500Z 2406/2415 19006MPS 6000 -SN BKN020 
     TEMPO 2409/2415 25007MPS 1500 SHSNRA BKN006 BKN015CB
       
UWKS 240630Z 14003MPS 3600 BR BKN004 M02/M02 Q1017 R24/190055 TEMPO 1000 BR OVC002 RMK QFE748
TAF UWKS 240446Z 2406/2415 17005G10MPS 3100 BR OVC011 
     TEMPO 2406/2408 0600 FZFG VV002 
     BECMG 2408/2409 9999 NSW
       
UUOO 240630Z 04002MPS 9999 OVC008 02/M00 Q1015 R12/190055 NOSIG RMK QFE747
TAF UUOO 240500Z 2406/2415 36003MPS 6000 -SN OVC009
       
URWW 240630Z 14004MPS 9999 SCT008 BKN046CB 03/01 Q1014 R06/290060 NOSIG
TAF URWW 240500Z 2406/2415 17005G11MPS 3100 -SHSNRA BR BKN011 BKN020CB 
     TEMPO 2406/2411 15007G13MPS 1200 SHSNRA BR BKN004 BKN020CB 
     TEMPO 2411/2415 22005G11MPS
       
UHBB 240630Z 35003MPS 8000 FEW033 M01/M09 Q1000 R36/090060 NOSIG RMK QFE732/0977
TAF COR UHBB 240459Z 2406/2506 08003MPS 6000 SCT030CB 
     TEMPO 2406/2415 3100 HZ 
     FM241700 03003MPS 3100 BR BKN020CB 
     TEMPO 2421/2506 3100 -SHSN
       
UIII 240630Z 31005MPS 9999 BKN020CB 01/M02 Q1014 R30/290150 NOSIG RMK QFE716/0955
TAF COR UIII 240500Z 2406/2506 30005MPS 9999 BKN011CB 
     TEMPO 2406/2424 0500 +SHSN VV002
       
UIAA 240630Z 28009G15MPS 9999 SCT046CB 01/M12 Q1003 R29/410160 NOSIG RMK QFE694/0925
TAF UIAA 240500Z 2406/2506 29009G15MPS 9999 SCT033CB 
     TEMPO 2406/2412 33014G20MPS
       
UWKD 240630Z 16004MPS 0500 0300SE R11/0500U FZFG VV002 M01/M02 Q1019 R11/290050 TEMPO 0500 FZFG RMK QBB060 QFE754/1005
TAF UWKD 240458Z 2406/2506 18003MPS 0200 FZFG OVC002 TX01/2412Z TNM02/2406Z 
     TEMPO 2406/2409 0800 FZFG VV003 
     BECMG 2409/2410 3100 BR OVC007 
     FM241500 14005MPS 3100 -SNRA BR OVC007 
     TEMPO 2415/2421 10005MPS 2000 SNRA OVC005 
     TEMPO 2421/2506 06006MPS 1000 SNRA OVC004
       
UNEE 240630Z 18004MPS CAVOK 03/M05 Q1016 R23/CLRD60 NOSIG RMK QFE739
TAF UNEE 240500Z 2406/2506 20003G08MPS 9999 SCT020 
     TEMPO 2406/2412 3100 -SNRA BKN011 
     FM241200 26003MPS 3100 -SHSNRA BKN011CB 
     TEMPO 2413/2505 0300 FZFG VV002
       
UHSS 240630Z 30004MPS 9999 SCT040CB M01/M15 Q1004 R01/810360 NOSIG RMK QFE752/1003
TAF UHSS 240500Z 2406/2512 21003MPS 9999 BKN030CB 
     TEMPO 2406/2512 3000 -SHSN BKN011CB
       
UMKK 240630Z 28007MPS 9999 FEW020 05/02 Q1022 R24/CLRD60 NOSIG RMK QFE766/1021
TAF UMKK 240500Z 2406/2506 28005G10MPS 9999 SCT011 
     TEMPO 2406/2412 30007MPS BKN007 
     BECMG 2412/2414 26006MPS BKN011 
     TEMPO 2421/2506 24003MPS 3100 BR BKN005
       
UHWW 240630Z 19008MPS 9999 NSC 05/M06 Q1007 WS R25L R25L/0///70 NOSIG RMK QFE754
TAF UHWW 240500Z 2406/2506 20008MPS 9999 BKN030 
     TEMPO 2406/2410 20009G14MPS BKN020 
     BECMG 2410/2413 23003MPS
       
USSS 240630Z 13003MPS 070V240 CAVOK 04/M02 Q1019 R26R/120050 NOSIG RMK QFE743/0991
TAF USSS 240454Z 2406/2506 18003G08MPS 9999 SCT020 
     BECMG 2415/2417 3100 BR SCT011 
     BECMG 2502/2504 16003G12MPS 9999 NSW
       
UNKL 240630Z 30002MPS CAVOK 06/M03 Q1014 R29/CLRD65 NOSIG RMK QFE735
TAF UNKL 240455Z 2406/2506 27005G12MPS 9999 SCT020CB 
     TEMPO 2406/2424 3100 -SHSN BKN015CB
       
UWWW 240630Z 09003MPS 9999 SCT033 M00/M03 Q1019 R33/CLRD60 NOSIG RMK QFE753/1005
TAF UWWW 240459Z 2406/2506 16003G08MPS 3100 -RA BR BKN011 TX03/2410Z TNM02/2406Z

     TEMPO 2406/2418 12006G12MPS 1000 RASN BR BKN004 
     FM241800 12003G09MPS 2100 -SNRA BR BKN007 
     TEMPO 2418/2506 VRB01MPS 0300 +SHSN FZFG VV002
       
USCM 240630Z 18004MPS 9999 NSC 01/M03 Q1019 R18/090060 NOSIG RMK QFE727
TAF USCM 240500Z 2406/2415 16003G08MPS 5000 BR SCT020 
     TEMPO 2406/2415 24003MPS 3100 BR SCT011
       
URMM 240630Z 27005MPS 9999 NSC 03/M01 Q1016 R30/090070 NOSIG RMK QFE734/0979
TAF URMM 240458Z 2406/2506 29003G08MPS 9999 BKN020 TX07/2412Z TNM02/2503Z 
     TEMPO 2418/2506 VRB01MPS 3100 BR BKN011
       
UIUU 240630Z 31011MPS 9999 SCT043CB 04/M09 Q1011 WS R26 R26/CLRD60 NOSIG RMK QFE714/0952
TAF UIUU 240500Z 2406/2506 31009G15MPS 9999 BKN030CB 
     TEMPO 2406/2412 3500 -SHSN 
     BECMG 2412/2414 29003G08MPS
       
ULMM 240630Z 18003MPS 150V230 CAVOK M01/M06 Q0980 R13/690145 NOSIG RMK QFE729
TAF ULMM 240450Z 2406/2506 18003G08MPS 9999 BKN011 
     TEMPO 2406/2417 20006G11MPS 4000 -SHSNRA BKN011CB 
     TEMPO 2417/2420 20003G08MPS 1500 SHSN BKN006 BKN011CB 
     BECMG 2420/2421 30003G08MPS 
     TEMPO 2421/2506 33003G08MPS 3100 -SHSN BKN011CB
       
URMN 240630Z 31001MPS 9999 -SHSN BKN020CB 02/M00 Q1015 R24/210155 NOSIG RMK QFE725
TAF URMN 240500Z 2406/2415 07003MPS 9999 BKN020CB 
     TEMPO 2406/2412 3100 -SHRASN BR BKN011 BKN015CB
       
USNN 240630Z 27004MPS CAVOK 00/M03 Q1017 R21/19//62 NOSIG RMK QFE758
TAF USNN 240500Z 2406/2506 30003MPS 9999 SCT030 
     TEMPO 2406/2409 4000 BR SCT015 
     TEMPO 2421/2503 22003MPS 1000 BR BKN003
       
UHHH 240630Z 22003MPS 130V260 CAVOK 01/M23 Q1003 R23L/090060 NOSIG RMK QFE746/0995
TAF UHHH 240450Z 2406/2512 23005MPS 9999 SCT025 
     BECMG 2410/2412 13003MPS SCT020CB 
     BECMG 2419/2421 05003MPS
       
UWOO 240630Z 06003MPS CAVOK 02/M02 Q1021 R08/150053 NOSIG RMK QFE755/1007
TAF UWOO 240451Z 2406/2506 08003G08MPS 3100 BR BKN011 TX02/2412Z TN01/2503Z 
     FM241500 12007G12MPS 3100 -RA BR BKN008 
     TEMPO 2415/2506 16014MPS 0700 +RASN FG VV002
       
UWOR 240600Z 14003MPS CAVOK 06/M01 Q1021 R25/CLRD65 NOSIG RMK QFE742/0989
TAF UWOR 240454Z 2406/2415 10003G08MPS 3100 BR BKN011
       
URKK 240630Z 26005MPS 9999 -SHRA BKN013 BKN035CB 05/01 Q1018 R23L/290060 TEMPO 2000 SHRASN BKN004 BKN020CB RMK QFE760
TAF URKK 240456Z 2406/2506 23005G10MPS 9999 SCT011 BKN030CB 
     TEMPO 2406/2409 3100 -SHRASN BKN007 BKN020CB 
     TEMPO 2409/2418 28007G13MPS 3100 -SHRA
       
TAF UERP 240500Z 2406/2506 31004MPS CAVOK
       
ULOO 240630Z 28006G12MPS 250V310 P5000 NSC 04/M00 Q1010 R19/190060 NOSIG RMK QFE753
TAF ULOO 240459Z 2406/2415 26007G13MPS 6000 BKN020 
     TEMPO 2406/2415 25010G15MPS 3100 -SHRA BKN011 BKN020CB
       
ULLI 240630Z 27007MPS 9999 FEW020 04/00 Q1004 R88/290050 NOSIG
TAF ULLI 240501Z 2406/2506 25006G12MPS 9999 BKN015 
     TEMPO 2408/2418 27009G15MPS 4000 -SHRA BKN011 BKN020CB 
     BECMG 2420/2422 24003MPS 
     TEMPO 2422/2505 3100 -RA BR
       
USTR 240630Z 19002MPS CAVOK 03/M02 Q1022 R30/CLRD65 NOSIG RMK QFE757/1009
TAF USTR 240452Z 2406/2506 18003MPS 9999 SCT020 
     TEMPO 2406/2409 3100 BR BKN007
       
UUEE 240630Z 18004MPS 1600 1400NE R24C/1400U R24L/1400U SHSN SCT004 BKN021CB 00/M00 Q1010 R24C/520245 R24L/510251 TEMPO 0700 +SHSN
TAF AMD UUEE 240535Z 2406/2506 20006G11MPS 2100 -RASN OVC006 TX02/2413Z
TNM01/2503Z 
     TEMPO 2406/2412 0600 +SHRASN BKN004 SCT012CB 
     FM241200 26006MPS 6000 BKN008 
     TEMPO 2412/2420 1200 SHSNRA BKN005 SCT011CB
       
URMT 240630Z 29009MPS 9999 SCT017 01/M02 Q1014 R25/120060 TEMPO 28009G14MPS RMK QFE722
TAF URMT 240500Z 2406/2415 26006G11MPS 9999 SCT011 SCT020CB 
     TEMPO 2406/2412 3100 -SHRA BR BKN011 BKN020CB
       
URSS 240630Z 04003MPS 9999 FEW040TCU BKN090 07/M01 Q1019 R02/190060 R06/////// NOSIG RMK R06/00000MPS MT OBSC QFE763
TAF URSS 240456Z 2406/2506 23006MPS 9999 SCT040CB OVC100 
     TEMPO 2406/2416 VRB06G11MPS -TSRAGS 
     BECMG 2416/2418 05006MPS NSC
       
UHMM 240630Z 03003MPS 9999 NSC M02/M15 Q0996 R10/82//40 NOSIG RMK QFE732
TAF UHMM 240451Z 2406/2512 03003G08MPS 9999 BKN040 OVC070 
     TEMPO 2406/2412 24003G08MPS
       
UWGG 240630Z 18004MPS 9999 OVC023 01/M02 Q1014 R18L/090060 NOSIG
TAF UWGG 240453Z 2406/2506 18003MPS 6000 BKN015 TX06/2412Z TNM01/2406Z 
     TEMPO 2412/2421 20005G10MPS 2500 -SHSNRA BKN011CB
       
USRR 240630Z 28005MPS 9999 SCT007 M01/M01 Q1018 R25/550145 TEMPO BKN005 RMK QFE758
TAF AMD USRR 240559Z 2406/2506 25003MPS 9999 BKN005 
     BECMG 2409/2411 BKN011 
     TEMPO 2411/2424 3100 -SHSN BR BKN015CB 
     BECMG 2419/2420 20003MPS
       
UUYY 240630Z 19005MPS CAVOK 04/M05 Q1009 R18/CLRD61 NOSIG RMK QFE749/0998
TAF UUYY 240500Z 2406/2506 19005G10MPS 6000 BKN011 BKN015CB 
     TEMPO 2406/2418 21006G14MPS 3100 -SHRASN FEW007 BKN012CB 
     TEMPO 2418/2506 3100 -SHSN BR FEW005 BKN012CB 
     BECMG 2421/2423 17003G08MPS
       
ULAA 240630Z 25005MPS 200V290 9999 OVC012 02/M01 Q0996 R26/620248 NOSIG RMK QFE746/0994
TAF ULAA 240458Z 2406/2506 22003G09MPS 9999 BKN015 
     TEMPO 2406/2416 23005G12MPS 5000 -SHSN BKN011CB 
     TEMPO 2416/2424 23004G09MPS 3100 -SHSN BKN007 BKN011CB 
     TEMPO 2500/2506 27003G08MPS 2000 SHSN BR BKN006 BKN011CB
       
UNNT 240630Z 29003MPS 9999 FEW013 02/M02 Q1018 R25/190065 R34/110070 NOSIG RMK QFE753/1004
TAF UNNT 240500Z 2406/2506 27003G08MPS 9999 SCT011 
     TEMPO 2412/2415 3100 FU BR BKN005 
     TEMPO 2415/2506 0500 FZFG BKN002
       
UNOO 240630Z 27003MPS CAVOK 01/M03 Q1021 R25/CLRD60 NOSIG RMK QFE758
TAF UNOO 240445Z 2406/2506 25003MPS 6000 SCT011 
     FM241200 VRB01MPS 2100 BR SCT010 
     TEMPO 2412/2418 0400 FZFG VV003 
     FM241800 VRB01MPS 1200 BR SCT004 
     TEMPO 2418/2504 0300 FZFG VV002
       
UWSS 240630Z 07003MPS 0150 R12/0800 SNRA FG VV003 00/00 Q1017 R12/390145 NOSIG RMK QFE750
TAF UWSS 240500Z 2406/2415 06003MPS 0300 DZ FG VV002 
     TEMPO 2409/2415 2100 -SNRA BR OVC006
       
UUDL 240630Z 19003MPS CAVOK 02/M04 Q1009 R23/010060 TEMPO 1500 SNRA RMK QFE749
TAF UUDL 240500Z 2406/2506 19005MPS 3100 -SN OVC016 
     TEMPO 2406/2418 1200 SNRA OVC011 
     BECMG 2412/2414 25003MPS
       
UWUU 240630Z 20005MPS 9999 OVC020 01/M01 Q1021 R14R/0///60 NOSIG RMK QFE756/1008
TAF UWUU 240500Z 2406/2506 21003G08MPS 9999 BKN020 
     TEMPO 2412/2418 16003G08MPS BKN015 
     TEMPO 2418/2506 14003G08MPS 3100 -SNRA BR OVC011
       
UHMA 240600Z 15001MPS 9999 -SN SCT025 BKN032 M12/M15 Q0998 R01/////// NOSIG RMK END R01/14002MPS QFE745/0993
TAF UHMA 240458Z 2406/2506 01006G11MPS 3000 -SN BLSN SCT007 BKN033 
     TEMPO 2406/2415 06011G16MPS 0500 SHSN BLSN BKN007 BKN020CB 
     FM241500 05009G14MPS 0700 SHSN BLSN VV002 
     TEMPO 2415/2506 10014G19MPS 0100 BLSN VV001
       
URML 240630Z 33011MPS 9999 BKN051 07/02 Q1014 R32/01//70 TEMPO 32014G20MPS RMK QFE760/1013
TAF URML 240500Z 2406/2415 32010G16MPS 9999 BKN013 SCT030CB 
     TEMPO 2406/2412 32014G20MPS
       
URKA 240630Z 33005MPS 9999 SCT025CB 06/03 Q1018 R04/010070 NOSIG RMK QFE760/1013
TAF URKA 240450Z 2406/2506 32005G10MPS 9999 SCT020CB 
     TEMPO 2406/2409 3100 -SHRA BR BKN011 BKN020CB 
     TEMPO 2409/2415 VRB06G14MPS 3100 -TSRA BKN011 BKN020CB 
     BECMG 2418/2419 23005G10MPS
       
UUWW 240630Z 19003MPS 2300 -SHSN OVC014CB 00/M02 Q1011 R24/190055 TEMPO 0700 +SHSN BKN012CB
TAF UUWW 240458Z 2406/2506 20007G12MPS 3100 -SN OVC007 TX03/2412Z TNM02/2503Z 
     TEMPO 2406/2413 0800 +SHSN BKN003 BKN012CB 
     FM241300 26005MPS 6000 FEW005 BKN011 
     TEMPO 2413/2418 2100 -SHSNRA BKN012CB
       
UWLW 240600Z 00000MPS 5000 BR NSC M00/M03 Q1019 R20/CLRD60 NOSIG RMK QFE758
TAF UWLW 240445Z 2406/2506 12003MPS 5000 -SNRA BR BKN015 
     TEMPO 2406/2506 16005G10MPS 1000 SNRA BR OVC004
       
UEEE 240630Z 35005MPS CAVOK M07/M15 Q1003 R23L/450055 NOSIG RMK QFE743
TAF UEEE 240500Z 2406/2512 02003G08MPS 9999 -SHSN DRSN BKN020CB OVC070 
     TEMPO 2406/2412 2100 -SHSN
       
UHPP 240600Z 15004MPS 9999 BKN031CB M01/M03 Q0988 R34L/190055 NOSIG RMK MT OBSC QFE737/0983
TAF UHPP 240440Z 2406/2512 32003G12MPS 5000 -SHSN SCT011 BKN020CB 
     TEMPO 2406/2424 0700 -SHSN FZFG BKN003 OVC015CB 
     TEMPO 2500/2506 18003G12MPS 
     FM250600 34003G12MPS 9999 BKN033